createdAt,value
2023-04-26T00:01:03.989Z,3.05
2023-04-26T00:03:08.315Z,3.00
2023-04-26T00:05:11.609Z,3.60
2023-04-26T00:07:15.782Z,2.22
2023-04-26T00:09:19.516Z,2.80
2023-04-26T00:11:23.064Z,2.63
2023-04-26T00:13:25.993Z,2.70
2023-04-26T00:15:28.838Z,2.38
2023-04-26T00:17:31.903Z,2.70
2023-04-26T00:19:36.936Z,3.75
2023-04-26T00:21:39.816Z,2.58
2023-04-26T00:23:43.121Z,3.30
2023-04-26T00:25:46.253Z,3.03
2023-04-26T00:27:49.914Z,2.30
2023-04-26T00:29:52.674Z,2.65
2023-04-26T00:32:01.400Z,3.17
2023-04-26T00:34:04.190Z,3.72
2023-04-26T00:36:08.849Z,2.25
2023-04-26T00:38:11.726Z,3.00
2023-04-26T00:40:16.131Z,2.30
2023-04-26T00:42:19.595Z,2.80
2023-04-26T00:44:22.490Z,3.30
2023-04-26T00:46:26.476Z,3.20
2023-04-26T00:48:29.931Z,2.75
2023-04-26T00:50:33.573Z,2.38
2023-04-26T00:54:43.019Z,2.73
2023-04-26T00:56:45.983Z,3.00
2023-04-26T00:58:48.931Z,3.47
2023-04-26T01:00:51.818Z,3.83
2023-04-26T01:02:54.779Z,3.60
2023-04-26T01:04:57.658Z,3.05
2023-04-26T01:07:01.418Z,2.97
2023-04-26T01:09:09.931Z,3.10
2023-04-26T01:11:12.979Z,3.42
2023-04-26T01:13:16.460Z,3.45
2023-04-26T01:15:19.326Z,3.47
2023-04-26T01:17:22.165Z,3.13
2023-04-26T01:19:25.661Z,3.53
2023-04-26T01:21:28.551Z,2.90
2023-04-26T01:23:52.258Z,3.22
2023-04-26T01:27:58.996Z,3.72
2023-04-26T01:30:01.747Z,3.28
2023-04-26T01:32:07.302Z,3.70
2023-04-26T01:34:10.338Z,3.38
2023-04-26T01:36:13.557Z,3.60
2023-04-26T01:38:17.808Z,3.78
2023-04-26T01:40:22.204Z,3.60
2023-04-26T01:42:25.151Z,3.45
2023-04-26T01:44:28.020Z,4.28
2023-04-26T01:46:30.851Z,3.58
2023-04-26T01:48:34.287Z,3.63
2023-04-26T01:50:37.106Z,5.57
2023-04-26T01:52:39.885Z,4.90
2023-04-26T01:54:42.860Z,4.53
2023-04-26T01:56:47.171Z,3.88
2023-04-26T01:58:50.300Z,5.15
2023-04-26T02:00:53.246Z,5.38
2023-04-26T02:02:56.484Z,4.45
2023-04-26T02:04:59.340Z,4.45
2023-04-26T02:07:03.032Z,4.75
2023-04-26T02:09:06.005Z,4.25
2023-04-26T02:11:08.856Z,4.30
2023-04-26T02:13:13.762Z,3.38
2023-04-26T02:15:16.652Z,4.38
2023-04-26T02:17:21.282Z,4.00
2023-04-26T02:19:24.260Z,4.57
2023-04-26T02:21:28.216Z,3.25
2023-04-26T02:23:31.311Z,4.23
2023-04-26T02:25:34.187Z,3.60
2023-04-26T02:27:37.063Z,3.65
2023-04-26T02:29:44.719Z,3.55
2023-04-26T02:31:49.286Z,3.35
2023-04-26T02:33:52.071Z,4.10
2023-04-26T02:35:54.909Z,3.65
2023-04-26T02:37:57.696Z,3.92
2023-04-26T02:40:01.381Z,3.35
2023-04-26T02:42:05.026Z,3.60
2023-04-26T02:44:08.244Z,4.05
2023-04-26T02:46:12.479Z,4.03
2023-04-26T02:48:15.486Z,4.80
2023-04-26T02:50:18.313Z,3.45
2023-04-26T02:52:21.349Z,3.58
2023-04-26T02:54:24.146Z,4.03
2023-04-26T02:56:28.006Z,3.80
2023-04-26T02:58:31.249Z,4.13
2023-04-26T03:00:35.021Z,4.72
2023-04-26T03:02:41.060Z,3.83
2023-04-26T03:04:44.084Z,3.97
2023-04-26T03:06:46.810Z,3.72
2023-04-26T03:08:49.828Z,3.53
2023-04-26T03:10:52.951Z,4.25
2023-04-26T03:12:55.690Z,3.88
2023-04-26T03:14:58.672Z,4.05
2023-04-26T03:17:02.973Z,3.75
2023-04-26T03:19:09.298Z,5.65
2023-04-26T03:21:13.270Z,4.05
2023-04-26T03:23:16.220Z,4.20
2023-04-26T03:25:19.562Z,3.38
2023-04-26T03:27:22.392Z,3.88
2023-04-26T03:29:25.255Z,3.35
2023-04-26T03:31:28.096Z,2.97
2023-04-26T03:33:31.650Z,4.05
2023-04-26T03:35:35.805Z,3.33
2023-04-26T03:37:39.937Z,4.00
2023-04-26T03:39:46.600Z,3.80
2023-04-26T03:41:50.152Z,2.97
2023-04-26T03:43:53.042Z,3.80
2023-04-26T03:45:56.318Z,4.60
2023-04-26T03:47:59.187Z,3.67
2023-04-26T03:50:02.390Z,5.28
2023-04-26T03:52:07.370Z,4.00
2023-04-26T03:54:11.132Z,4.07
2023-04-26T03:56:14.043Z,3.97
2023-04-26T03:58:16.883Z,4.60
2023-04-26T04:00:19.637Z,3.83
2023-04-26T04:02:24.148Z,4.72
2023-04-26T04:04:27.484Z,4.47
2023-04-26T04:06:30.855Z,4.63
2023-04-26T04:08:35.383Z,4.22
2023-04-26T04:10:38.392Z,5.07
2023-04-26T04:12:41.283Z,4.93
2023-04-26T04:14:44.362Z,3.85
2023-04-26T04:16:47.495Z,4.30
2023-04-26T04:18:50.955Z,4.30
2023-04-26T04:20:53.933Z,4.63
2023-04-26T04:22:57.708Z,5.40
2023-04-26T04:25:04.615Z,5.28
2023-04-26T04:27:07.517Z,4.57
2023-04-26T04:29:10.521Z,4.55
2023-04-26T04:31:14.263Z,4.63
2023-04-26T04:33:17.809Z,4.95
2023-04-26T04:35:20.924Z,4.50
2023-04-26T04:37:25.509Z,5.85
2023-04-26T04:39:28.532Z,4.03
2023-04-26T04:41:34.576Z,4.28
2023-04-26T04:43:37.418Z,4.40
2023-04-26T04:45:40.305Z,4.90
2023-04-26T04:47:44.000Z,4.88
2023-04-26T04:49:47.208Z,4.80
2023-04-26T04:51:50.022Z,5.05
2023-04-26T04:53:53.261Z,4.40
2023-04-26T04:55:56.903Z,4.20
2023-04-26T04:58:01.614Z,5.03
2023-04-26T05:00:10.258Z,4.07
2023-04-26T05:02:18.967Z,5.60
2023-04-26T05:04:22.339Z,3.95
2023-04-26T05:06:25.442Z,4.75
2023-04-26T05:08:28.433Z,4.72
2023-04-26T05:10:34.624Z,4.60
2023-04-26T05:12:38.059Z,4.47
2023-04-26T05:14:42.289Z,4.82
2023-04-26T05:16:45.224Z,3.95
2023-04-26T05:18:48.868Z,6.00
2023-04-26T05:20:51.752Z,5.28
2023-04-26T05:22:54.736Z,4.65
2023-04-26T05:24:57.682Z,4.40
2023-04-26T05:27:01.026Z,4.47
2023-04-26T05:29:09.662Z,4.88
2023-04-26T05:31:22.544Z,4.00
2023-04-26T05:33:45.792Z,5.00
2023-04-26T05:35:54.154Z,5.30
2023-04-26T05:37:58.070Z,4.83
2023-04-26T05:40:01.297Z,4.45
2023-04-26T05:42:04.348Z,3.85
2023-04-26T05:44:08.033Z,4.05
2023-04-26T05:46:10.915Z,4.38
2023-04-26T05:48:15.279Z,3.92
2023-04-26T05:50:18.399Z,4.47
2023-04-26T05:52:21.388Z,4.57
2023-04-26T05:54:24.890Z,4.38
2023-04-26T05:56:28.574Z,4.80
2023-04-26T05:58:33.678Z,5.72
2023-04-26T06:00:38.490Z,4.53
2023-04-26T06:02:42.917Z,5.38
2023-04-26T06:04:53.324Z,5.35
2023-04-26T06:06:56.258Z,5.50
2023-04-26T06:08:59.088Z,5.45
2023-04-26T06:11:01.912Z,5.57
2023-04-26T06:13:04.793Z,6.20
2023-04-26T06:15:12.337Z,6.88
2023-04-26T06:17:15.969Z,6.28
2023-04-26T06:19:19.356Z,6.28
2023-04-26T06:21:25.333Z,6.22
2023-04-26T06:23:28.269Z,6.10
2023-04-26T06:25:31.349Z,5.75
2023-04-26T06:27:34.256Z,4.85
2023-04-26T06:29:37.181Z,5.30
2023-04-26T06:31:40.086Z,6.53
2023-04-26T06:33:42.947Z,6.05
2023-04-26T06:35:46.393Z,6.78
2023-04-26T06:37:51.358Z,7.28
2023-04-26T06:39:54.227Z,6.90
2023-04-26T06:41:57.240Z,5.57
2023-04-26T06:46:25.616Z,5.15
2023-04-26T06:48:29.742Z,5.57
2023-04-26T06:50:32.600Z,5.60
2023-04-26T06:52:35.469Z,5.45
2023-04-26T06:54:45.957Z,5.55
2023-04-26T06:56:52.961Z,5.55
2023-04-26T06:59:03.520Z,6.95
2023-04-26T07:01:08.519Z,6.38
2023-04-26T07:03:11.447Z,5.88
2023-04-26T07:05:15.226Z,6.03
2023-04-26T07:07:18.210Z,6.03
2023-04-26T07:09:21.054Z,6.07
2023-04-26T07:11:26.034Z,5.18
2023-04-26T07:13:29.311Z,6.10
2023-04-26T07:15:33.097Z,6.32
2023-04-26T07:17:36.198Z,6.90
2023-04-26T07:19:39.005Z,6.97
2023-04-26T07:21:41.872Z,6.88
2023-04-26T07:23:44.866Z,6.90
2023-04-26T07:25:47.992Z,6.53
2023-04-26T07:27:52.374Z,7.00
2023-04-26T07:29:56.139Z,6.80
2023-04-26T07:31:59.279Z,6.75
2023-04-26T07:34:02.027Z,5.68
2023-04-26T07:36:05.305Z,6.45
2023-04-26T07:38:08.965Z,6.93
2023-04-26T07:40:13.522Z,6.50
2023-04-26T07:42:16.575Z,5.93
2023-04-26T07:44:20.743Z,7.10
2023-04-26T07:46:23.700Z,5.07
2023-04-26T07:48:26.515Z,6.50
2023-04-26T07:50:29.452Z,5.50
2023-04-26T07:52:32.331Z,5.38
2023-04-26T07:54:35.195Z,5.15
2023-04-26T07:56:37.944Z,5.60
2023-04-26T07:58:40.826Z,6.63
2023-04-26T08:00:45.051Z,6.15
2023-04-26T08:02:48.011Z,5.50
2023-04-26T08:04:52.565Z,5.30
2023-04-26T08:08:59.537Z,5.00
2023-04-26T08:11:02.390Z,5.65
2023-04-26T08:13:05.372Z,5.10
2023-04-26T08:15:09.129Z,5.25
2023-04-26T08:17:13.360Z,5.10
2023-04-26T08:19:17.472Z,5.07
2023-04-26T08:21:20.274Z,4.63
2023-04-26T08:23:23.554Z,6.88
2023-04-26T08:25:27.050Z,7.13
2023-04-26T08:27:29.840Z,6.47
2023-04-26T08:29:32.664Z,7.25
2023-04-26T08:31:35.993Z,6.22
2023-04-26T08:33:40.348Z,5.70
2023-04-26T08:35:43.158Z,6.25
2023-04-26T08:37:46.114Z,4.57
2023-04-26T08:39:48.906Z,5.18
2023-04-26T08:41:55.132Z,4.97
2023-04-26T08:43:59.124Z,3.92
2023-04-26T08:46:02.863Z,5.40
2023-04-26T08:48:13.365Z,4.40
2023-04-26T08:50:20.872Z,6.13
2023-04-26T08:52:24.545Z,4.93
2023-04-26T08:54:28.846Z,5.60
2023-04-26T08:56:32.195Z,3.95
2023-04-26T08:58:35.963Z,4.18
2023-04-26T09:00:39.214Z,3.50
2023-04-26T09:02:43.123Z,3.55
2023-04-26T09:04:46.964Z,5.15
2023-04-26T09:06:54.430Z,2.83
2023-04-26T09:08:59.346Z,3.00
2023-04-26T09:11:03.952Z,2.80
2023-04-26T09:13:06.820Z,3.00
2023-04-26T09:15:10.863Z,2.30
2023-04-26T09:17:26.954Z,2.88
2023-04-26T09:19:37.788Z,2.60
2023-04-26T09:21:45.330Z,2.92
2023-04-26T09:24:04.393Z,3.58
2023-04-26T09:26:17.066Z,2.85
2023-04-26T09:28:22.941Z,3.20
2023-04-26T09:32:44.159Z,4.18
2023-04-26T09:34:47.956Z,4.05
2023-04-26T09:36:51.991Z,4.27
2023-04-26T09:38:54.811Z,4.18
2023-04-26T09:41:00.974Z,4.32
2023-04-26T09:43:05.368Z,4.72
2023-04-26T09:45:09.033Z,6.57
2023-04-26T09:47:13.173Z,5.88
2023-04-26T09:49:16.120Z,4.68
2023-04-26T09:51:18.929Z,3.92
2023-04-26T09:53:29.671Z,4.78
2023-04-26T09:55:35.357Z,4.60
2023-04-26T09:57:45.462Z,4.57
2023-04-26T09:59:49.829Z,5.38
2023-04-26T10:01:52.700Z,4.68
2023-04-26T10:03:56.871Z,5.72
2023-04-26T10:05:59.902Z,5.05
2023-04-26T10:08:04.064Z,4.28
2023-04-26T10:10:08.797Z,4.35
2023-04-26T10:14:17.014Z,4.97
2023-04-26T10:16:21.812Z,4.75
2023-04-26T10:20:30.141Z,6.03
2023-04-26T10:22:38.234Z,5.95
2023-04-26T10:24:41.432Z,5.95
2023-04-26T10:26:53.013Z,6.97
2023-04-26T10:29:01.968Z,5.28
2023-04-26T10:31:07.629Z,5.63
2023-04-26T10:33:14.751Z,6.28
2023-04-26T10:35:19.087Z,5.70
2023-04-26T10:37:21.916Z,4.32
2023-04-26T10:39:25.870Z,4.32
2023-04-26T10:41:33.195Z,4.93
2023-04-26T10:43:36.275Z,3.83
2023-04-26T10:45:39.979Z,3.60
2023-04-26T10:47:44.256Z,4.37
2023-04-26T10:49:48.271Z,3.92
2023-04-26T10:52:11.268Z,4.27
2023-04-26T10:54:14.262Z,4.65
2023-04-26T10:56:53.846Z,4.90
2023-04-26T10:59:30.674Z,5.95
2023-04-26T11:01:32.118Z,5.88
2023-04-26T11:03:37.161Z,4.57
2023-04-26T11:05:56.326Z,5.03
2023-04-26T11:08:19.117Z,5.68
2023-04-26T11:10:24.072Z,4.75
2023-04-26T11:12:26.898Z,4.80
2023-04-26T11:14:31.256Z,3.88
2023-04-26T11:16:35.212Z,4.30
2023-04-26T11:18:41.892Z,4.10
2023-04-26T11:20:46.132Z,4.88
2023-04-26T11:22:49.028Z,4.30
2023-04-26T11:24:51.900Z,4.03
2023-04-26T11:26:55.022Z,4.68
2023-04-26T11:28:57.945Z,3.92
2023-04-26T11:31:01.934Z,3.95
2023-04-26T11:33:05.172Z,3.67
2023-04-26T11:35:10.495Z,4.32
2023-04-26T11:37:13.405Z,3.65
2023-04-26T11:39:16.344Z,6.60
2023-04-26T11:41:19.269Z,6.35
2023-04-26T11:43:22.213Z,4.88
2023-04-26T11:45:25.006Z,5.75
2023-04-26T11:47:30.726Z,5.15
2023-04-26T11:49:34.464Z,4.90
2023-04-26T11:51:38.729Z,3.78
2023-04-26T11:53:42.915Z,4.00
2023-04-26T11:55:46.136Z,4.55
2023-04-26T11:57:48.933Z,4.60
2023-04-26T11:59:52.004Z,5.22
2023-04-26T12:01:54.786Z,5.72
2023-04-26T12:03:59.408Z,4.82
2023-04-26T12:06:02.529Z,4.43
2023-04-26T12:08:06.855Z,4.20
2023-04-26T12:10:16.498Z,5.40
2023-04-26T12:12:19.388Z,3.85
2023-04-26T12:14:23.025Z,5.43
2023-04-26T12:16:27.131Z,3.88
2023-04-26T12:18:33.693Z,4.75
2023-04-26T12:20:39.207Z,3.92
2023-04-26T12:22:42.150Z,4.45
2023-04-26T12:24:48.071Z,3.78
2023-04-26T12:26:50.975Z,3.92
2023-04-26T12:28:53.763Z,3.70
2023-04-26T12:30:56.979Z,3.53
2023-04-26T12:33:09.225Z,4.10
2023-04-26T12:35:18.993Z,3.67
2023-04-26T12:37:21.808Z,3.63
2023-04-26T12:39:24.732Z,3.72
2023-04-26T12:41:28.836Z,4.13
2023-04-26T12:43:32.842Z,5.07
2023-04-26T12:45:36.573Z,4.07
2023-04-26T12:47:39.861Z,4.15
2023-04-26T12:49:42.626Z,4.30
2023-04-26T12:51:46.088Z,4.55
2023-04-26T12:53:48.851Z,5.03
2023-04-26T12:55:51.686Z,3.90
2023-04-26T12:57:55.870Z,4.07
2023-04-26T12:59:58.765Z,4.03
2023-04-26T13:02:02.087Z,4.65
2023-04-26T13:04:05.975Z,3.90
2023-04-26T13:06:09.437Z,3.72
2023-04-26T13:08:12.480Z,4.80
2023-04-26T13:10:15.522Z,3.75
2023-04-26T13:12:18.341Z,3.65
2023-04-26T13:14:23.284Z,2.95
2023-04-26T13:16:26.441Z,4.25
2023-04-26T13:18:29.368Z,4.70
2023-04-26T13:20:32.220Z,3.60
2023-04-26T13:22:35.127Z,4.78
2023-04-26T13:24:38.252Z,3.78
2023-04-26T13:26:41.121Z,4.63
2023-04-26T13:28:43.912Z,4.15
2023-04-26T13:30:48.323Z,5.13
2023-04-26T13:32:51.526Z,4.70
2023-04-26T13:34:55.034Z,4.07
2023-04-26T13:36:58.836Z,3.95
2023-04-26T13:39:01.738Z,3.90
2023-04-26T13:41:04.586Z,4.70
2023-04-26T13:43:07.358Z,4.07
2023-04-26T13:45:11.106Z,3.70
2023-04-26T13:47:15.261Z,3.83
2023-04-26T13:49:18.109Z,4.30
2023-04-26T13:51:21.047Z,4.45
2023-04-26T13:53:23.949Z,4.68
2023-04-26T13:55:26.773Z,4.22
2023-04-26T13:57:29.554Z,4.78
2023-04-26T13:59:32.563Z,3.97
2023-04-26T14:01:36.890Z,4.55
2023-04-26T14:03:41.884Z,4.57
2023-04-26T14:05:44.857Z,3.47
2023-04-26T14:07:47.645Z,5.00
2023-04-26T14:09:52.015Z,4.60
2023-04-26T14:12:07.131Z,4.30
2023-04-26T14:14:11.167Z,4.25
2023-04-26T14:16:13.965Z,4.00
2023-04-26T14:18:17.533Z,4.78
2023-04-26T14:20:22.142Z,4.20
2023-04-26T14:22:25.887Z,4.20
2023-04-26T14:24:28.685Z,4.40
2023-04-26T14:26:31.462Z,4.20
2023-04-26T14:28:34.290Z,4.78
2023-04-26T14:30:37.130Z,3.80
2023-04-26T14:32:39.924Z,4.22
2023-04-26T14:34:42.872Z,4.38
2023-04-26T14:36:47.066Z,4.35
2023-04-26T14:38:49.931Z,4.18
2023-04-26T14:40:52.825Z,3.67
2023-04-26T14:42:55.670Z,4.47
2023-04-26T14:44:59.555Z,3.67
2023-04-26T14:47:02.309Z,3.90
2023-04-26T14:49:05.101Z,3.78
2023-04-26T14:51:07.967Z,3.60
2023-04-26T14:53:12.287Z,3.53
2023-04-26T14:55:18.288Z,3.35
2023-04-26T14:57:21.222Z,3.08
2023-04-26T14:59:24.098Z,3.65
2023-04-26T15:01:27.152Z,4.13
2023-04-26T15:03:30.116Z,4.55
2023-04-26T15:05:33.260Z,3.60
2023-04-26T15:07:36.421Z,3.00
2023-04-26T15:09:40.633Z,3.38
2023-04-26T15:11:43.456Z,3.03
2023-04-26T15:13:46.231Z,3.05
2023-04-26T15:15:48.966Z,2.75
2023-04-26T15:17:51.940Z,3.35
2023-04-26T15:19:54.757Z,4.07
2023-04-26T15:21:57.487Z,3.03
2023-04-26T15:24:00.336Z,2.70
2023-04-26T15:26:05.004Z,2.95
2023-04-26T15:30:10.920Z,2.75
2023-04-26T15:32:13.719Z,3.97
2023-04-26T15:34:16.593Z,3.08
2023-04-26T15:36:20.477Z,3.08
2023-04-26T15:38:23.283Z,3.85
2023-04-26T15:40:27.510Z,4.18
2023-04-26T15:42:31.698Z,3.75
2023-04-26T15:44:35.166Z,2.95
2023-04-26T15:46:38.353Z,2.70
2023-04-26T15:48:41.365Z,5.68
2023-04-26T15:50:44.141Z,3.47
2023-04-26T15:52:46.917Z,3.83
2023-04-26T15:54:49.735Z,2.90
2023-04-26T15:56:52.941Z,2.60
2023-04-26T15:58:57.555Z,3.10
2023-04-26T16:03:03.660Z,3.15
2023-04-26T16:05:08.197Z,3.10
2023-04-26T16:09:25.302Z,2.45
2023-04-26T16:11:28.623Z,2.88
2023-04-26T16:13:33.461Z,4.00
2023-04-26T16:15:37.544Z,3.50
2023-04-26T16:17:40.455Z,3.83
2023-04-26T16:19:43.253Z,3.40
2023-04-26T16:21:47.018Z,2.80
2023-04-26T16:23:51.418Z,3.30
2023-04-26T16:25:57.418Z,4.03
2023-04-26T16:28:00.297Z,3.88
2023-04-26T16:30:03.867Z,3.22
2023-04-26T16:32:08.075Z,3.90
2023-04-26T16:34:11.326Z,3.05
2023-04-26T16:36:14.113Z,2.97
2023-04-26T16:38:17.250Z,3.80
2023-04-26T16:40:20.048Z,4.32
2023-04-26T16:42:22.903Z,3.67
2023-04-26T16:44:25.915Z,3.75
2023-04-26T16:46:28.826Z,3.28
2023-04-26T16:48:33.983Z,2.67
2023-04-26T16:50:36.909Z,3.72
2023-04-26T16:52:40.013Z,4.53
2023-04-26T16:54:42.833Z,3.50
2023-04-26T16:56:45.792Z,4.00
2023-04-26T16:58:48.557Z,8.48
2023-04-26T17:00:51.863Z,3.83
2023-04-26T17:02:54.888Z,3.35
2023-04-26T17:04:59.230Z,3.72
2023-04-26T17:07:02.092Z,3.25
2023-04-26T17:09:08.027Z,3.20
2023-04-26T17:11:14.059Z,3.00
2023-04-26T17:13:16.945Z,2.75
2023-04-26T17:15:19.916Z,2.83
2023-04-26T17:17:22.677Z,2.58
2023-04-26T17:19:25.851Z,2.28
2023-04-26T17:21:30.042Z,3.20
2023-04-26T17:23:33.766Z,2.60
2023-04-26T17:25:36.756Z,2.78
2023-04-26T17:27:39.540Z,2.67
2023-04-26T17:29:42.434Z,3.00
2023-04-26T17:31:45.446Z,3.08
2023-04-26T17:33:48.814Z,3.85
2023-04-26T17:35:51.661Z,2.83
2023-04-26T17:37:55.761Z,3.22
2023-04-26T17:39:58.614Z,2.50
2023-04-26T17:42:02.990Z,2.67
2023-04-26T17:44:05.869Z,3.42
2023-04-26T17:46:08.861Z,3.33
2023-04-26T17:48:13.179Z,2.70
2023-04-26T17:50:17.704Z,2.90
2023-04-26T17:52:20.548Z,3.47
2023-04-26T17:54:24.777Z,3.03
2023-04-26T17:56:27.577Z,2.97
2023-04-26T17:58:30.343Z,3.10
2023-04-26T18:00:33.169Z,3.03
2023-04-26T18:02:36.490Z,3.30
2023-04-26T18:04:39.718Z,2.85
2023-04-26T18:06:43.889Z,2.40
2023-04-26T18:08:47.069Z,3.07
2023-04-26T18:10:53.769Z,2.53
2023-04-26T18:12:56.613Z,3.08
2023-04-26T18:14:59.386Z,2.60
2023-04-26T18:17:02.365Z,2.58
2023-04-26T18:19:05.361Z,2.15
2023-04-26T18:21:08.206Z,2.47
2023-04-26T18:23:11.025Z,2.50
2023-04-26T18:25:13.843Z,2.47
2023-04-26T18:27:17.984Z,2.63
2023-04-26T18:29:20.929Z,2.72
2023-04-26T18:31:23.850Z,3.00
2023-04-26T18:33:27.098Z,2.30
2023-04-26T18:35:29.890Z,2.50
2023-04-26T18:37:32.951Z,3.33
2023-04-26T18:39:35.790Z,4.50
2023-04-26T18:41:38.636Z,27.88
2023-04-26T18:43:42.848Z,7.38
2023-04-26T18:45:45.608Z,13.13
2023-04-26T18:47:48.513Z,11.57
2023-04-26T18:49:51.553Z,6.60
2023-04-26T18:51:54.568Z,3.70
2023-04-26T18:53:57.386Z,4.03
2023-04-26T18:56:00.197Z,3.88
2023-04-26T18:58:03.463Z,3.17
2023-04-26T19:00:09.256Z,3.08
2023-04-26T19:02:12.200Z,2.38
2023-04-26T19:04:15.311Z,2.55
2023-04-26T19:06:18.331Z,2.72
2023-04-26T19:08:21.247Z,2.85
2023-04-26T19:10:24.272Z,2.40
2023-04-26T19:12:26.987Z,2.30
2023-04-26T19:14:29.784Z,2.33
2023-04-26T19:16:35.078Z,2.45
2023-04-26T19:18:40.410Z,2.08
2023-04-26T19:20:43.181Z,2.78
2023-04-26T19:22:46.362Z,2.10
2023-04-26T19:24:49.926Z,2.70
2023-04-26T19:26:52.718Z,2.38
2023-04-26T19:28:56.483Z,1.80
2023-04-26T19:30:59.438Z,2.23
2023-04-26T19:33:03.648Z,2.15
2023-04-26T19:35:07.323Z,2.60
2023-04-26T19:37:10.174Z,2.20
2023-04-26T19:39:13.020Z,2.38
2023-04-26T19:41:16.956Z,2.00
2023-04-26T19:43:19.894Z,2.13
2023-04-26T19:45:22.704Z,1.77
2023-04-26T19:47:26.713Z,2.53
2023-04-26T19:49:30.953Z,2.40
2023-04-26T19:51:33.818Z,2.10
2023-04-26T19:53:36.672Z,2.40
2023-04-26T19:55:40.883Z,2.33
2023-04-26T19:57:43.689Z,2.25
2023-04-26T19:59:46.535Z,2.63
2023-04-26T20:01:51.041Z,2.45
2023-04-26T20:03:56.030Z,2.60
2023-04-26T20:06:00.542Z,1.92
2023-04-26T20:08:03.463Z,1.98
2023-04-26T20:10:07.603Z,2.67
2023-04-26T20:12:10.974Z,2.67
2023-04-26T20:14:13.875Z,2.03
2023-04-26T20:16:17.059Z,2.10
2023-04-26T20:18:19.854Z,2.25
2023-04-26T20:20:22.708Z,2.00
2023-04-26T20:22:26.873Z,2.65
2023-04-26T20:24:29.811Z,2.70
2023-04-26T20:26:32.644Z,2.38
2023-04-26T20:28:35.941Z,2.85
2023-04-26T20:30:38.856Z,2.08
2023-04-26T20:32:41.846Z,4.25
2023-04-26T20:34:44.637Z,2.20
2023-04-26T20:36:47.672Z,2.67
2023-04-26T20:38:52.243Z,2.15
2023-04-26T20:40:55.196Z,1.80
2023-04-26T20:42:58.014Z,2.45
2023-04-26T20:45:02.260Z,2.42
2023-04-26T20:47:06.105Z,2.75
2023-04-26T20:49:09.252Z,2.53
2023-04-26T20:51:12.255Z,2.30
2023-04-26T20:53:14.987Z,2.55
2023-04-26T20:55:19.202Z,2.38
2023-04-26T20:57:22.127Z,2.40
2023-04-26T20:59:25.336Z,3.58
2023-04-26T21:01:28.271Z,2.20
2023-04-26T21:03:32.396Z,2.13
2023-04-26T21:05:35.746Z,2.40
2023-04-26T21:07:38.618Z,2.15
2023-04-26T21:09:41.803Z,2.28
2023-04-26T21:11:46.006Z,2.20
2023-04-26T21:13:49.359Z,2.30
2023-04-26T21:15:52.210Z,2.47
2023-04-26T21:17:55.207Z,2.40
2023-04-26T21:19:58.024Z,2.40
2023-04-26T21:22:00.787Z,2.08
2023-04-26T21:24:04.043Z,2.13
2023-04-26T21:26:06.860Z,2.88
2023-04-26T21:28:11.056Z,1.98
2023-04-26T21:30:14.572Z,2.50
2023-04-26T21:32:17.404Z,2.70
2023-04-26T21:34:20.265Z,2.28
2023-04-26T21:36:23.068Z,2.65
2023-04-26T21:38:26.087Z,2.03
2023-04-26T21:40:28.918Z,3.88
2023-04-26T21:42:32.061Z,2.45
2023-04-26T21:44:36.187Z,2.90
2023-04-26T21:46:38.994Z,2.58
2023-04-26T21:48:41.955Z,2.58
2023-04-26T21:50:44.893Z,3.00
2023-04-26T21:52:47.714Z,2.72
2023-04-26T21:54:52.795Z,2.53
2023-04-26T21:56:55.748Z,1.95
2023-04-26T21:58:58.768Z,2.53
2023-04-26T22:01:09.869Z,3.22
2023-04-26T22:03:13.057Z,2.13
2023-04-26T22:05:16.068Z,2.55
2023-04-26T22:07:18.839Z,2.40
2023-04-26T22:09:22.201Z,2.22
2023-04-26T22:11:25.007Z,2.90
2023-04-26T22:13:27.885Z,1.90
2023-04-26T22:15:30.934Z,2.30
2023-04-26T22:17:35.165Z,2.45
2023-04-26T22:19:37.944Z,2.20
2023-04-26T22:21:40.994Z,2.60
2023-04-26T22:23:43.895Z,3.03
2023-04-26T22:25:46.730Z,2.25
2023-04-26T22:27:49.752Z,2.78
2023-04-26T22:29:52.556Z,2.03
2023-04-26T22:31:55.763Z,2.72
2023-04-26T22:33:59.950Z,2.25
2023-04-26T22:36:02.942Z,2.55
2023-04-26T22:38:05.817Z,1.77
2023-04-26T22:40:11.306Z,3.05
2023-04-26T22:42:14.097Z,2.50
2023-04-26T22:44:16.908Z,2.70
2023-04-26T22:46:19.724Z,2.90
2023-04-26T22:48:22.561Z,2.40
2023-04-26T22:50:26.871Z,2.20
2023-04-26T22:52:31.850Z,2.55
2023-04-26T22:54:34.969Z,3.25
2023-04-26T22:56:37.791Z,2.65
2023-04-26T22:58:40.523Z,2.83
2023-04-26T23:00:43.551Z,2.60
2023-04-26T23:02:46.616Z,2.50
2023-04-26T23:04:49.967Z,2.80
2023-04-26T23:06:54.542Z,2.65
2023-04-26T23:08:57.329Z,2.58
2023-04-26T23:11:00.061Z,3.22
2023-04-26T23:13:03.772Z,2.60
2023-04-26T23:15:07.841Z,2.67
2023-04-26T23:17:11.877Z,2.80
2023-04-26T23:21:17.647Z,2.55
2023-04-26T23:23:21.781Z,2.55
2023-04-26T23:25:24.500Z,2.47
2023-04-26T23:27:27.665Z,2.83
2023-04-26T23:29:30.494Z,2.25
2023-04-26T23:31:33.354Z,2.25
2023-04-26T23:33:36.120Z,2.58
2023-04-26T23:35:41.540Z,2.78
2023-04-26T23:37:44.348Z,2.50
2023-04-26T23:39:48.546Z,2.92
2023-04-26T23:41:51.455Z,2.90
2023-04-26T23:43:54.237Z,3.58
2023-04-26T23:45:57.092Z,2.60
2023-04-26T23:48:00.076Z,3.13
2023-04-26T23:50:02.939Z,3.42
2023-04-26T23:52:06.114Z,2.88
2023-04-26T23:54:08.978Z,3.10
2023-04-26T23:56:13.218Z,2.80
2023-04-26T23:58:16.023Z,2.80
